• Join FlightAware (Why Join?)
  • Login
  • US Flag 
12:56AM EDT


 

Airport Tracker/Info


-or-


 

Live Flight TrackerFlight Track Log ✈ CLH304 ✈ 28-Jun-2013 ✈ EDDF / FRA - LIMF / TRN

Flight Track Log - Related Links

Times and Time Zones

All times are in EDT time to prevent confusion due to time zone crossing. See the CLH304 flight status page for this flight to view local times or setup timezone preferences in your user account.

Time Position Orientation Groundspeed Altitude Reporting Facility
EDT Latitude Longitude Course Direction KTS MPH feet Rate Location/Type
03:17PM 49.7053 8.4782 187° South  Level Estimated
03:18PM 49.5982 8.4568 187° South  Level Estimated
03:19PM 49.4912 8.4354 187° South  Level Estimated
03:20PM 49.3841 8.4142 187° South  Level Estimated
03:21PM 49.2770 8.3930 187° South  Level Estimated
03:22PM 49.1700 8.3719 187° South  Level Estimated
03:23PM 49.0629 8.3510 187° South  Level Estimated
03:24PM 48.9558 8.3301 187° South  Level Estimated
03:25PM 48.8487 8.3093 187° South  Level Estimated
03:26PM 48.7417 8.2886 187° South  Level Estimated
03:27PM 48.6346 8.2679 187° South  Level Estimated
03:28PM 48.5275 8.2474 187° South  Level Estimated
03:29PM 48.4204 8.2269 187° South  Level Estimated
03:30PM 48.3133 8.2066 187° South  Level Estimated
03:31PM 48.2062 8.1863 187° South  Level Estimated
03:32PM 48.0991 8.1661 187° South  Level Estimated
03:33PM 47.9920 8.1460 187° South  Level Estimated
03:34PM 47.8848 8.1259 187° South  Level Estimated
03:35PM 47.7777 8.1060 187° South  Level Estimated
03:36PM 47.6706 8.0861 187° South  Level Estimated
03:37PM 47.5635 8.0664 187° South  Level Estimated
03:38PM 47.4564 8.0467 187° South  Level Estimated
03:39PM 47.3492 8.0270 187° South  Level Estimated
03:40PM 47.2421 8.0075 187° South  Level Estimated
03:41PM 47.1185 7.9851 187° South  Level Estimated
03:42PM 46.9949 7.9627 187° South  Level Estimated
03:43PM 46.8712 7.9405 187° South  Level Estimated
03:44PM 46.7476 7.9183 187° South  Level Estimated
03:45PM 46.6240 7.8963 187° South  Level Estimated
03:46PM 46.5003 7.8743 187° South  Level Estimated
03:47PM 46.3767 7.8525 187° South  Level Estimated
03:48PM 46.2530 7.8308 187° South  Level Estimated
03:49PM 46.1294 7.8091 187° South  Level Estimated
03:50PM 46.0057 7.7876 187° South  Level Estimated
03:51PM 45.8820 7.7661 187° South  Level Estimated
03:52PM 45.7584 7.7448 187° South  Level Estimated
03:53PM 45.6347 7.7235 187° South  Level Estimated
03:54PM 45.5110 7.7023 187° South  Level Estimated
03:55PM 45.3874 7.6813 187° South  Level Estimated
03:56PM 45.2637 7.6603 187° South  Level Estimated
03:57PM 45.2008 7.6496 187° South  Level Estimated
03:58PM 45.2008 7.6496 35° Northeast  Level Estimated
03:59PM 45.2008 7.6496 35° Northeast  Level Estimated
04:00PM 45.2008 7.6496 35° Northeast  Level Estimated
04:01PM 45.2008 7.6496 35° Northeast  Level Estimated
04:02PM 45.2008 7.6496 35° Northeast  Level Estimated
04:03PM 45.2008 7.6496 35° Northeast  Level Estimated
04:04PM 45.2008 7.6496 35° Northeast  Level Estimated
04:05PM 45.2008 7.6496 35° Northeast  Level Estimated
04:06PM 45.2008 7.6496 35° Northeast  Level Estimated
04:07PM 45.2008 7.6496 35° Northeast  Level Estimated
04:08PM 45.2008 7.6496 35° Northeast  Level Estimated
04:09PM 45.2008 7.6496 35° Northeast  Level Estimated